<?xml version="1.0" encoding="UTF-8" standalone="no" ?>
<gpx xmlns="http://www.topografix.com/GPX/1/1" xmlns:xsi="http://www.w3.org/2001/XMLSchema-instance" xsi:schemaLocation="http://www.topografix.com/GPX/1/1 http://www.topografix.com/GPX/1/1/gpx.xsd" version="1.1" creator="VisuGPX - https://www.visugpx.com">
  <metadata>
    <name>180907 - Tailleville-Basly-Fontaine-Henry-Courseulles</name>
    <desc><![CDATA[Circuit en handbike du 7 septembre 2018]]></desc>
  </metadata>
  <trk>
    <name><![CDATA[180907 - Tailleville-Basly-Fontaine-Henry-Courseulles]]></name>
    <trkseg>
      <trkpt lat="49.32663" lon="-0.381">
        <ele>6.39</ele>
        <time>2018-09-07T12:06:58Z</time>
      </trkpt>
      <trkpt lat="49.32608" lon="-0.38121">
        <ele>6.39</ele>
        <time>2018-09-07T12:07:18Z</time>
      </trkpt>
      <trkpt lat="49.32525" lon="-0.38157">
        <ele>6.87</ele>
        <time>2018-09-07T12:07:37Z</time>
      </trkpt>
      <trkpt lat="49.32462" lon="-0.38194">
        <ele>6.39</ele>
        <time>2018-09-07T12:07:59Z</time>
      </trkpt>
      <trkpt lat="49.32449" lon="-0.38182">
        <ele>6.87</ele>
        <time>2018-09-07T12:08:05Z</time>
      </trkpt>
      <trkpt lat="49.32394" lon="-0.38076">
        <ele>6.39</ele>
        <time>2018-09-07T12:08:24Z</time>
      </trkpt>
      <trkpt lat="49.32336" lon="-0.37959">
        <ele>6.87</ele>
        <time>2018-09-07T12:08:42Z</time>
      </trkpt>
      <trkpt lat="49.3228" lon="-0.37846">
        <ele>6.87</ele>
        <time>2018-09-07T12:09:00Z</time>
      </trkpt>
      <trkpt lat="49.32227" lon="-0.37737">
        <ele>5.91</ele>
        <time>2018-09-07T12:09:19Z</time>
      </trkpt>
      <trkpt lat="49.32162" lon="-0.37618">
        <ele>3.98</ele>
        <time>2018-09-07T12:09:40Z</time>
      </trkpt>
      <trkpt lat="49.32137" lon="-0.37612">
        <ele>3.98</ele>
        <time>2018-09-07T12:09:50Z</time>
      </trkpt>
      <trkpt lat="49.32124" lon="-0.37617">
        <ele>3.5</ele>
        <time>2018-09-07T12:10:00Z</time>
      </trkpt>
      <trkpt lat="49.32103" lon="-0.37617">
        <ele>3.02</ele>
        <time>2018-09-07T12:10:11Z</time>
      </trkpt>
      <trkpt lat="49.32053" lon="-0.37639">
        <ele>3.98</ele>
        <time>2018-09-07T12:10:22Z</time>
      </trkpt>
      <trkpt lat="49.32037" lon="-0.37616">
        <ele>3.5</ele>
        <time>2018-09-07T12:10:28Z</time>
      </trkpt>
      <trkpt lat="49.32025" lon="-0.37534">
        <ele>2.06</ele>
        <time>2018-09-07T12:10:58Z</time>
      </trkpt>
      <trkpt lat="49.32028" lon="-0.37538">
        <ele>2.54</ele>
        <time>2018-09-07T12:11:05Z</time>
      </trkpt>
      <trkpt lat="49.32033" lon="-0.37598">
        <ele>2.06</ele>
        <time>2018-09-07T12:11:23Z</time>
      </trkpt>
      <trkpt lat="49.32048" lon="-0.37635">
        <ele>2.06</ele>
        <time>2018-09-07T12:11:33Z</time>
      </trkpt>
      <trkpt lat="49.32046" lon="-0.37648">
        <ele>2.06</ele>
        <time>2018-09-07T12:11:37Z</time>
      </trkpt>
      <trkpt lat="49.32009" lon="-0.37713">
        <ele>3.02</ele>
        <time>2018-09-07T12:11:54Z</time>
      </trkpt>
      <trkpt lat="49.31982" lon="-0.37782">
        <ele>4.46</ele>
        <time>2018-09-07T12:12:07Z</time>
      </trkpt>
      <trkpt lat="49.31949" lon="-0.37929">
        <ele>5.91</ele>
        <time>2018-09-07T12:12:30Z</time>
      </trkpt>
      <trkpt lat="49.31888" lon="-0.3812">
        <ele>6.87</ele>
        <time>2018-09-07T12:12:58Z</time>
      </trkpt>
      <trkpt lat="49.31817" lon="-0.38277">
        <ele>8.31</ele>
        <time>2018-09-07T12:13:23Z</time>
      </trkpt>
      <trkpt lat="49.31751" lon="-0.38447">
        <ele>8.31</ele>
        <time>2018-09-07T12:13:48Z</time>
      </trkpt>
      <trkpt lat="49.31707" lon="-0.38591">
        <ele>7.35</ele>
        <time>2018-09-07T12:14:07Z</time>
      </trkpt>
      <trkpt lat="49.31638" lon="-0.38752">
        <ele>8.31</ele>
        <time>2018-09-07T12:14:29Z</time>
      </trkpt>
      <trkpt lat="49.31572" lon="-0.38899">
        <ele>9.75</ele>
        <time>2018-09-07T12:14:50Z</time>
      </trkpt>
      <trkpt lat="49.31525" lon="-0.39051">
        <ele>10.23</ele>
        <time>2018-09-07T12:15:10Z</time>
      </trkpt>
      <trkpt lat="49.31501" lon="-0.39208">
        <ele>12.15</ele>
        <time>2018-09-07T12:15:29Z</time>
      </trkpt>
      <trkpt lat="49.31469" lon="-0.39308">
        <ele>15.04</ele>
        <time>2018-09-07T12:15:42Z</time>
      </trkpt>
      <trkpt lat="49.31434" lon="-0.39406">
        <ele>18.4</ele>
        <time>2018-09-07T12:15:55Z</time>
      </trkpt>
      <trkpt lat="49.31416" lon="-0.39459">
        <ele>21.77</ele>
        <time>2018-09-07T12:16:02Z</time>
      </trkpt>
      <trkpt lat="49.31367" lon="-0.39654">
        <ele>22.25</ele>
        <time>2018-09-07T12:16:27Z</time>
      </trkpt>
      <trkpt lat="49.31315" lon="-0.39795">
        <ele>23.69</ele>
        <time>2018-09-07T12:16:46Z</time>
      </trkpt>
      <trkpt lat="49.31261" lon="-0.39929">
        <ele>24.17</ele>
        <time>2018-09-07T12:17:06Z</time>
      </trkpt>
      <trkpt lat="49.31191" lon="-0.40081">
        <ele>25.13</ele>
        <time>2018-09-07T12:17:27Z</time>
      </trkpt>
      <trkpt lat="49.31127" lon="-0.40198">
        <ele>27.05</ele>
        <time>2018-09-07T12:17:45Z</time>
      </trkpt>
      <trkpt lat="49.31059" lon="-0.40347">
        <ele>28.5</ele>
        <time>2018-09-07T12:18:05Z</time>
      </trkpt>
      <trkpt lat="49.31013" lon="-0.40454">
        <ele>30.42</ele>
        <time>2018-09-07T12:18:22Z</time>
      </trkpt>
      <trkpt lat="49.30988" lon="-0.40508">
        <ele>30.42</ele>
        <time>2018-09-07T12:19:26Z</time>
      </trkpt>
      <trkpt lat="49.30954" lon="-0.40558">
        <ele>31.38</ele>
        <time>2018-09-07T12:19:41Z</time>
      </trkpt>
      <trkpt lat="49.30912" lon="-0.4062">
        <ele>31.38</ele>
        <time>2018-09-07T12:20:00Z</time>
      </trkpt>
      <trkpt lat="49.30904" lon="-0.40632">
        <ele>30.9</ele>
        <time>2018-09-07T12:20:17Z</time>
      </trkpt>
      <trkpt lat="49.30834" lon="-0.40668">
        <ele>32.34</ele>
        <time>2018-09-07T12:20:30Z</time>
      </trkpt>
      <trkpt lat="49.30737" lon="-0.40718">
        <ele>33.78</ele>
        <time>2018-09-07T12:20:48Z</time>
      </trkpt>
      <trkpt lat="49.30675" lon="-0.40766">
        <ele>34.74</ele>
        <time>2018-09-07T12:21:03Z</time>
      </trkpt>
      <trkpt lat="49.3062" lon="-0.40813">
        <ele>35.23</ele>
        <time>2018-09-07T12:21:16Z</time>
      </trkpt>
      <trkpt lat="49.30612" lon="-0.40848">
        <ele>35.23</ele>
        <time>2018-09-07T12:21:22Z</time>
      </trkpt>
      <trkpt lat="49.30583" lon="-0.40903">
        <ele>34.74</ele>
        <time>2018-09-07T12:21:34Z</time>
      </trkpt>
      <trkpt lat="49.30574" lon="-0.40906">
        <ele>35.23</ele>
        <time>2018-09-07T12:21:36Z</time>
      </trkpt>
      <trkpt lat="49.30484" lon="-0.40921">
        <ele>34.74</ele>
        <time>2018-09-07T12:21:57Z</time>
      </trkpt>
      <trkpt lat="49.30478" lon="-0.40923">
        <ele>34.74</ele>
        <time>2018-09-07T12:21:59Z</time>
      </trkpt>
      <trkpt lat="49.30476" lon="-0.40944">
        <ele>34.74</ele>
        <time>2018-09-07T12:22:04Z</time>
      </trkpt>
      <trkpt lat="49.30477" lon="-0.41007">
        <ele>35.23</ele>
        <time>2018-09-07T12:22:19Z</time>
      </trkpt>
      <trkpt lat="49.3043" lon="-0.41023">
        <ele>35.71</ele>
        <time>2018-09-07T12:22:35Z</time>
      </trkpt>
      <trkpt lat="49.30427" lon="-0.41026">
        <ele>35.71</ele>
        <time>2018-09-07T12:22:52Z</time>
      </trkpt>
      <trkpt lat="49.30426" lon="-0.41036">
        <ele>36.19</ele>
        <time>2018-09-07T12:22:56Z</time>
      </trkpt>
      <trkpt lat="49.30417" lon="-0.411">
        <ele>37.63</ele>
        <time>2018-09-07T12:23:10Z</time>
      </trkpt>
      <trkpt lat="49.30373" lon="-0.41103">
        <ele>38.11</ele>
        <time>2018-09-07T12:23:22Z</time>
      </trkpt>
      <trkpt lat="49.30278" lon="-0.41084">
        <ele>38.59</ele>
        <time>2018-09-07T12:23:41Z</time>
      </trkpt>
      <trkpt lat="49.30196" lon="-0.41125">
        <ele>39.55</ele>
        <time>2018-09-07T12:23:57Z</time>
      </trkpt>
      <trkpt lat="49.30156" lon="-0.41143">
        <ele>40.03</ele>
        <time>2018-09-07T12:24:04Z</time>
      </trkpt>
      <trkpt lat="49.30071" lon="-0.41151">
        <ele>40.51</ele>
        <time>2018-09-07T12:24:21Z</time>
      </trkpt>
      <trkpt lat="49.29992" lon="-0.41151">
        <ele>41.95</ele>
        <time>2018-09-07T12:24:36Z</time>
      </trkpt>
      <trkpt lat="49.29946" lon="-0.41159">
        <ele>43.4</ele>
        <time>2018-09-07T12:24:45Z</time>
      </trkpt>
      <trkpt lat="49.2984" lon="-0.41182">
        <ele>45.8</ele>
        <time>2018-09-07T12:25:06Z</time>
      </trkpt>
      <trkpt lat="49.29731" lon="-0.4119">
        <ele>48.68</ele>
        <time>2018-09-07T12:25:26Z</time>
      </trkpt>
      <trkpt lat="49.29604" lon="-0.41195">
        <ele>51.09</ele>
        <time>2018-09-07T12:25:50Z</time>
      </trkpt>
      <trkpt lat="49.29468" lon="-0.41198">
        <ele>53.49</ele>
        <time>2018-09-07T12:26:15Z</time>
      </trkpt>
      <trkpt lat="49.29329" lon="-0.41189">
        <ele>54.45</ele>
        <time>2018-09-07T12:26:40Z</time>
      </trkpt>
      <trkpt lat="49.29207" lon="-0.41177">
        <ele>56.86</ele>
        <time>2018-09-07T12:27:02Z</time>
      </trkpt>
      <trkpt lat="49.2914" lon="-0.41178">
        <ele>55.41</ele>
        <time>2018-09-07T12:27:13Z</time>
      </trkpt>
      <trkpt lat="49.29118" lon="-0.41194">
        <ele>55.41</ele>
        <time>2018-09-07T12:27:17Z</time>
      </trkpt>
      <trkpt lat="49.29099" lon="-0.41217">
        <ele>55.41</ele>
        <time>2018-09-07T12:27:21Z</time>
      </trkpt>
      <trkpt lat="49.29087" lon="-0.4125">
        <ele>55.89</ele>
        <time>2018-09-07T12:27:25Z</time>
      </trkpt>
      <trkpt lat="49.29052" lon="-0.41322">
        <ele>56.86</ele>
        <time>2018-09-07T12:27:35Z</time>
      </trkpt>
      <trkpt lat="49.2903" lon="-0.41337">
        <ele>55.89</ele>
        <time>2018-09-07T12:27:39Z</time>
      </trkpt>
      <trkpt lat="49.28904" lon="-0.41406">
        <ele>55.41</ele>
        <time>2018-09-07T12:28:01Z</time>
      </trkpt>
      <trkpt lat="49.28834" lon="-0.41453">
        <ele>53.97</ele>
        <time>2018-09-07T12:28:15Z</time>
      </trkpt>
      <trkpt lat="49.2882" lon="-0.41472">
        <ele>53.97</ele>
        <time>2018-09-07T12:28:21Z</time>
      </trkpt>
      <trkpt lat="49.28812" lon="-0.41478">
        <ele>53.97</ele>
        <time>2018-09-07T12:28:25Z</time>
      </trkpt>
      <trkpt lat="49.28788" lon="-0.41484">
        <ele>53.01</ele>
        <time>2018-09-07T12:28:31Z</time>
      </trkpt>
      <trkpt lat="49.28697" lon="-0.41552">
        <ele>52.05</ele>
        <time>2018-09-07T12:28:50Z</time>
      </trkpt>
      <trkpt lat="49.28578" lon="-0.41646">
        <ele>50.61</ele>
        <time>2018-09-07T12:29:12Z</time>
      </trkpt>
      <trkpt lat="49.28572" lon="-0.41647">
        <ele>50.13</ele>
        <time>2018-09-07T12:29:13Z</time>
      </trkpt>
      <trkpt lat="49.28544" lon="-0.41644">
        <ele>50.13</ele>
        <time>2018-09-07T12:29:18Z</time>
      </trkpt>
      <trkpt lat="49.2845" lon="-0.4161">
        <ele>50.61</ele>
        <time>2018-09-07T12:29:34Z</time>
      </trkpt>
      <trkpt lat="49.28444" lon="-0.41612">
        <ele>50.61</ele>
        <time>2018-09-07T12:29:35Z</time>
      </trkpt>
      <trkpt lat="49.28338" lon="-0.41692">
        <ele>50.61</ele>
        <time>2018-09-07T12:29:54Z</time>
      </trkpt>
      <trkpt lat="49.28226" lon="-0.41782">
        <ele>52.05</ele>
        <time>2018-09-07T12:30:15Z</time>
      </trkpt>
      <trkpt lat="49.28153" lon="-0.41825">
        <ele>53.97</ele>
        <time>2018-09-07T12:30:31Z</time>
      </trkpt>
      <trkpt lat="49.28151" lon="-0.4183">
        <ele>53.97</ele>
        <time>2018-09-07T12:30:32Z</time>
      </trkpt>
      <trkpt lat="49.28116" lon="-0.41973">
        <ele>55.41</ele>
        <time>2018-09-07T12:30:51Z</time>
      </trkpt>
      <trkpt lat="49.28081" lon="-0.42111">
        <ele>55.41</ele>
        <time>2018-09-07T12:31:09Z</time>
      </trkpt>
      <trkpt lat="49.28042" lon="-0.42251">
        <ele>55.89</ele>
        <time>2018-09-07T12:31:27Z</time>
      </trkpt>
      <trkpt lat="49.2803" lon="-0.42296">
        <ele>55.41</ele>
        <time>2018-09-07T12:31:33Z</time>
      </trkpt>
      <trkpt lat="49.28031" lon="-0.42324">
        <ele>55.41</ele>
        <time>2018-09-07T12:31:37Z</time>
      </trkpt>
      <trkpt lat="49.2805" lon="-0.42412">
        <ele>56.86</ele>
        <time>2018-09-07T12:31:56Z</time>
      </trkpt>
      <trkpt lat="49.28049" lon="-0.42414">
        <ele>56.37</ele>
        <time>2018-09-07T12:32:07Z</time>
      </trkpt>
      <trkpt lat="49.2804" lon="-0.42419">
        <ele>56.37</ele>
        <time>2018-09-07T12:32:11Z</time>
      </trkpt>
      <trkpt lat="49.28032" lon="-0.42419">
        <ele>55.89</ele>
        <time>2018-09-07T12:32:13Z</time>
      </trkpt>
      <trkpt lat="49.27969" lon="-0.42445">
        <ele>55.89</ele>
        <time>2018-09-07T12:32:26Z</time>
      </trkpt>
      <trkpt lat="49.27952" lon="-0.42439">
        <ele>55.89</ele>
        <time>2018-09-07T12:32:30Z</time>
      </trkpt>
      <trkpt lat="49.27881" lon="-0.42385">
        <ele>55.89</ele>
        <time>2018-09-07T12:32:45Z</time>
      </trkpt>
      <trkpt lat="49.27864" lon="-0.42404">
        <ele>55.41</ele>
        <time>2018-09-07T12:32:50Z</time>
      </trkpt>
      <trkpt lat="49.27832" lon="-0.42495">
        <ele>56.86</ele>
        <time>2018-09-07T12:33:09Z</time>
      </trkpt>
      <trkpt lat="49.27851" lon="-0.42582">
        <ele>56.37</ele>
        <time>2018-09-07T12:33:24Z</time>
      </trkpt>
      <trkpt lat="49.2787" lon="-0.4267">
        <ele>56.37</ele>
        <time>2018-09-07T12:33:43Z</time>
      </trkpt>
      <trkpt lat="49.27892" lon="-0.42781">
        <ele>55.89</ele>
        <time>2018-09-07T12:34:01Z</time>
      </trkpt>
      <trkpt lat="49.27912" lon="-0.4289">
        <ele>54.93</ele>
        <time>2018-09-07T12:34:18Z</time>
      </trkpt>
      <trkpt lat="49.27914" lon="-0.42924">
        <ele>54.93</ele>
        <time>2018-09-07T12:34:23Z</time>
      </trkpt>
      <trkpt lat="49.27909" lon="-0.42956">
        <ele>54.45</ele>
        <time>2018-09-07T12:34:28Z</time>
      </trkpt>
      <trkpt lat="49.27849" lon="-0.43142">
        <ele>51.57</ele>
        <time>2018-09-07T12:34:55Z</time>
      </trkpt>
      <trkpt lat="49.27844" lon="-0.43161">
        <ele>51.09</ele>
        <time>2018-09-07T12:34:58Z</time>
      </trkpt>
      <trkpt lat="49.27804" lon="-0.43245">
        <ele>50.61</ele>
        <time>2018-09-07T12:35:15Z</time>
      </trkpt>
      <trkpt lat="49.27735" lon="-0.43331">
        <ele>48.2</ele>
        <time>2018-09-07T12:35:36Z</time>
      </trkpt>
      <trkpt lat="49.27683" lon="-0.43414">
        <ele>45.32</ele>
        <time>2018-09-07T12:35:54Z</time>
      </trkpt>
      <trkpt lat="49.27621" lon="-0.43506">
        <ele>42.44</ele>
        <time>2018-09-07T12:36:14Z</time>
      </trkpt>
      <trkpt lat="49.27572" lon="-0.4357">
        <ele>40.51</ele>
        <time>2018-09-07T12:36:31Z</time>
      </trkpt>
      <trkpt lat="49.27542" lon="-0.4362">
        <ele>37.15</ele>
        <time>2018-09-07T12:36:47Z</time>
      </trkpt>
      <trkpt lat="49.27529" lon="-0.43663">
        <ele>34.74</ele>
        <time>2018-09-07T12:37:03Z</time>
      </trkpt>
      <trkpt lat="49.27515" lon="-0.4371">
        <ele>33.3</ele>
        <time>2018-09-07T12:37:20Z</time>
      </trkpt>
      <trkpt lat="49.27472" lon="-0.43737">
        <ele>31.86</ele>
        <time>2018-09-07T12:37:43Z</time>
      </trkpt>
      <trkpt lat="49.27462" lon="-0.43747">
        <ele>31.86</ele>
        <time>2018-09-07T12:37:49Z</time>
      </trkpt>
      <trkpt lat="49.27421" lon="-0.43784">
        <ele>29.94</ele>
        <time>2018-09-07T12:38:11Z</time>
      </trkpt>
      <trkpt lat="49.2735" lon="-0.4384">
        <ele>26.09</ele>
        <time>2018-09-07T12:38:58Z</time>
      </trkpt>
      <trkpt lat="49.2731" lon="-0.43912">
        <ele>25.13</ele>
        <time>2018-09-07T12:39:19Z</time>
      </trkpt>
      <trkpt lat="49.27248" lon="-0.43977">
        <ele>24.17</ele>
        <time>2018-09-07T12:39:41Z</time>
      </trkpt>
      <trkpt lat="49.27197" lon="-0.44015">
        <ele>22.25</ele>
        <time>2018-09-07T12:40:01Z</time>
      </trkpt>
      <trkpt lat="49.27169" lon="-0.44073">
        <ele>20.81</ele>
        <time>2018-09-07T12:40:18Z</time>
      </trkpt>
      <trkpt lat="49.27169" lon="-0.44091">
        <ele>21.29</ele>
        <time>2018-09-07T12:41:36Z</time>
      </trkpt>
      <trkpt lat="49.27181" lon="-0.44178">
        <ele>21.29</ele>
        <time>2018-09-07T12:41:54Z</time>
      </trkpt>
      <trkpt lat="49.27193" lon="-0.4429">
        <ele>20.81</ele>
        <time>2018-09-07T12:42:11Z</time>
      </trkpt>
      <trkpt lat="49.27209" lon="-0.44363">
        <ele>18.88</ele>
        <time>2018-09-07T12:42:19Z</time>
      </trkpt>
      <trkpt lat="49.27279" lon="-0.44465">
        <ele>18.88</ele>
        <time>2018-09-07T12:42:37Z</time>
      </trkpt>
      <trkpt lat="49.27295" lon="-0.44509">
        <ele>19.84</ele>
        <time>2018-09-07T12:42:43Z</time>
      </trkpt>
      <trkpt lat="49.27302" lon="-0.44658">
        <ele>20.32</ele>
        <time>2018-09-07T12:42:59Z</time>
      </trkpt>
      <trkpt lat="49.27335" lon="-0.44698">
        <ele>24.17</ele>
        <time>2018-09-07T12:43:07Z</time>
      </trkpt>
      <trkpt lat="49.2749" lon="-0.44749">
        <ele>20.32</ele>
        <time>2018-09-07T12:43:46Z</time>
      </trkpt>
      <trkpt lat="49.27503" lon="-0.44752">
        <ele>19.36</ele>
        <time>2018-09-07T12:43:49Z</time>
      </trkpt>
      <trkpt lat="49.27561" lon="-0.44785">
        <ele>17.44</ele>
        <time>2018-09-07T12:43:54Z</time>
      </trkpt>
      <trkpt lat="49.2758" lon="-0.44988">
        <ele>17.92</ele>
        <time>2018-09-07T12:44:17Z</time>
      </trkpt>
      <trkpt lat="49.27581" lon="-0.45">
        <ele>18.4</ele>
        <time>2018-09-07T12:44:19Z</time>
      </trkpt>
      <trkpt lat="49.27604" lon="-0.4511">
        <ele>20.32</ele>
        <time>2018-09-07T12:44:36Z</time>
      </trkpt>
      <trkpt lat="49.2762" lon="-0.45142">
        <ele>18.4</ele>
        <time>2018-09-07T12:44:41Z</time>
      </trkpt>
      <trkpt lat="49.27627" lon="-0.45163">
        <ele>17.92</ele>
        <time>2018-09-07T12:44:44Z</time>
      </trkpt>
      <trkpt lat="49.27638" lon="-0.45237">
        <ele>17.44</ele>
        <time>2018-09-07T12:44:53Z</time>
      </trkpt>
      <trkpt lat="49.27619" lon="-0.45266">
        <ele>18.88</ele>
        <time>2018-09-07T12:45:00Z</time>
      </trkpt>
      <trkpt lat="49.27596" lon="-0.4526">
        <ele>22.73</ele>
        <time>2018-09-07T12:45:05Z</time>
      </trkpt>
      <trkpt lat="49.27561" lon="-0.45238">
        <ele>24.17</ele>
        <time>2018-09-07T12:45:17Z</time>
      </trkpt>
      <trkpt lat="49.27551" lon="-0.45232">
        <ele>25.61</ele>
        <time>2018-09-07T12:45:23Z</time>
      </trkpt>
      <trkpt lat="49.27497" lon="-0.45187">
        <ele>29.46</ele>
        <time>2018-09-07T12:46:01Z</time>
      </trkpt>
      <trkpt lat="49.27518" lon="-0.45193">
        <ele>28.02</ele>
        <time>2018-09-07T12:47:37Z</time>
      </trkpt>
      <trkpt lat="49.27534" lon="-0.4521">
        <ele>27.05</ele>
        <time>2018-09-07T12:47:53Z</time>
      </trkpt>
      <trkpt lat="49.27569" lon="-0.45229">
        <ele>24.17</ele>
        <time>2018-09-07T12:48:04Z</time>
      </trkpt>
      <trkpt lat="49.27592" lon="-0.45245">
        <ele>22.25</ele>
        <time>2018-09-07T12:48:11Z</time>
      </trkpt>
      <trkpt lat="49.27611" lon="-0.4525">
        <ele>19.36</ele>
        <time>2018-09-07T12:48:16Z</time>
      </trkpt>
      <trkpt lat="49.27615" lon="-0.45251">
        <ele>18.88</ele>
        <time>2018-09-07T12:48:17Z</time>
      </trkpt>
      <trkpt lat="49.27631" lon="-0.45253">
        <ele>17.44</ele>
        <time>2018-09-07T12:48:22Z</time>
      </trkpt>
      <trkpt lat="49.2764" lon="-0.45277">
        <ele>17.44</ele>
        <time>2018-09-07T12:48:28Z</time>
      </trkpt>
      <trkpt lat="49.27639" lon="-0.45296">
        <ele>16.96</ele>
        <time>2018-09-07T12:48:31Z</time>
      </trkpt>
      <trkpt lat="49.27644" lon="-0.4542">
        <ele>16.96</ele>
        <time>2018-09-07T12:48:52Z</time>
      </trkpt>
      <trkpt lat="49.27638" lon="-0.45454">
        <ele>16.96</ele>
        <time>2018-09-07T12:49:00Z</time>
      </trkpt>
      <trkpt lat="49.27631" lon="-0.45451">
        <ele>16.96</ele>
        <time>2018-09-07T12:49:13Z</time>
      </trkpt>
      <trkpt lat="49.27622" lon="-0.45452">
        <ele>16.96</ele>
        <time>2018-09-07T12:49:31Z</time>
      </trkpt>
      <trkpt lat="49.27624" lon="-0.45446">
        <ele>16.96</ele>
        <time>2018-09-07T12:49:52Z</time>
      </trkpt>
      <trkpt lat="49.27644" lon="-0.45442">
        <ele>16</ele>
        <time>2018-09-07T12:52:32Z</time>
      </trkpt>
      <trkpt lat="49.27639" lon="-0.45469">
        <ele>17.92</ele>
        <time>2018-09-07T12:52:43Z</time>
      </trkpt>
      <trkpt lat="49.27665" lon="-0.45507">
        <ele>17.92</ele>
        <time>2018-09-07T12:52:51Z</time>
      </trkpt>
      <trkpt lat="49.27738" lon="-0.45518">
        <ele>18.88</ele>
        <time>2018-09-07T12:53:11Z</time>
      </trkpt>
      <trkpt lat="49.27802" lon="-0.45529">
        <ele>21.29</ele>
        <time>2018-09-07T12:53:31Z</time>
      </trkpt>
      <trkpt lat="49.27884" lon="-0.45482">
        <ele>21.29</ele>
        <time>2018-09-07T12:53:53Z</time>
      </trkpt>
      <trkpt lat="49.28" lon="-0.45415">
        <ele>19.84</ele>
        <time>2018-09-07T12:54:21Z</time>
      </trkpt>
      <trkpt lat="49.28097" lon="-0.45398">
        <ele>18.88</ele>
        <time>2018-09-07T12:54:46Z</time>
      </trkpt>
      <trkpt lat="49.28219" lon="-0.45373">
        <ele>16.96</ele>
        <time>2018-09-07T12:55:16Z</time>
      </trkpt>
      <trkpt lat="49.28277" lon="-0.45345">
        <ele>17.92</ele>
        <time>2018-09-07T12:55:30Z</time>
      </trkpt>
      <trkpt lat="49.28296" lon="-0.45351">
        <ele>16.96</ele>
        <time>2018-09-07T12:55:34Z</time>
      </trkpt>
      <trkpt lat="49.28384" lon="-0.45393">
        <ele>16.96</ele>
        <time>2018-09-07T12:55:55Z</time>
      </trkpt>
      <trkpt lat="49.28429" lon="-0.45431">
        <ele>16.48</ele>
        <time>2018-09-07T12:56:08Z</time>
      </trkpt>
      <trkpt lat="49.28453" lon="-0.45428">
        <ele>16</ele>
        <time>2018-09-07T12:56:14Z</time>
      </trkpt>
      <trkpt lat="49.28497" lon="-0.45373">
        <ele>15.04</ele>
        <time>2018-09-07T12:56:27Z</time>
      </trkpt>
      <trkpt lat="49.28585" lon="-0.45426">
        <ele>14.08</ele>
        <time>2018-09-07T12:56:49Z</time>
      </trkpt>
      <trkpt lat="49.28687" lon="-0.45499">
        <ele>14.08</ele>
        <time>2018-09-07T12:57:15Z</time>
      </trkpt>
      <trkpt lat="49.28754" lon="-0.45532">
        <ele>14.56</ele>
        <time>2018-09-07T12:57:32Z</time>
      </trkpt>
      <trkpt lat="49.28982" lon="-0.45362">
        <ele>12.15</ele>
        <time>2018-09-07T12:58:28Z</time>
      </trkpt>
      <trkpt lat="49.29039" lon="-0.45318">
        <ele>11.19</ele>
        <time>2018-09-07T12:58:42Z</time>
      </trkpt>
      <trkpt lat="49.29047" lon="-0.45315">
        <ele>10.23</ele>
        <time>2018-09-07T12:58:44Z</time>
      </trkpt>
      <trkpt lat="49.2906" lon="-0.45313">
        <ele>10.23</ele>
        <time>2018-09-07T12:58:47Z</time>
      </trkpt>
      <trkpt lat="49.29111" lon="-0.45401">
        <ele>9.75</ele>
        <time>2018-09-07T12:58:53Z</time>
      </trkpt>
      <trkpt lat="49.29104" lon="-0.45431">
        <ele>10.23</ele>
        <time>2018-09-07T12:58:59Z</time>
      </trkpt>
      <trkpt lat="49.29152" lon="-0.45555">
        <ele>11.67</ele>
        <time>2018-09-07T12:59:21Z</time>
      </trkpt>
      <trkpt lat="49.29172" lon="-0.45791">
        <ele>12.63</ele>
        <time>2018-09-07T12:59:52Z</time>
      </trkpt>
      <trkpt lat="49.2918" lon="-0.45986">
        <ele>12.63</ele>
        <time>2018-09-07T13:00:18Z</time>
      </trkpt>
      <trkpt lat="49.29206" lon="-0.46094">
        <ele>12.63</ele>
        <time>2018-09-07T13:00:34Z</time>
      </trkpt>
      <trkpt lat="49.29225" lon="-0.46115">
        <ele>10.71</ele>
        <time>2018-09-07T13:00:38Z</time>
      </trkpt>
      <trkpt lat="49.29245" lon="-0.46121">
        <ele>10.23</ele>
        <time>2018-09-07T13:00:41Z</time>
      </trkpt>
      <trkpt lat="49.29343" lon="-0.46124">
        <ele>11.19</ele>
        <time>2018-09-07T13:00:57Z</time>
      </trkpt>
      <trkpt lat="49.29352" lon="-0.46129">
        <ele>10.71</ele>
        <time>2018-09-07T13:00:59Z</time>
      </trkpt>
      <trkpt lat="49.29392" lon="-0.46156">
        <ele>10.71</ele>
        <time>2018-09-07T13:01:07Z</time>
      </trkpt>
      <trkpt lat="49.29405" lon="-0.46169">
        <ele>11.67</ele>
        <time>2018-09-07T13:01:10Z</time>
      </trkpt>
      <trkpt lat="49.29417" lon="-0.46199">
        <ele>11.19</ele>
        <time>2018-09-07T13:01:15Z</time>
      </trkpt>
      <trkpt lat="49.29423" lon="-0.46338">
        <ele>9.75</ele>
        <time>2018-09-07T13:01:32Z</time>
      </trkpt>
      <trkpt lat="49.29428" lon="-0.46365">
        <ele>9.75</ele>
        <time>2018-09-07T13:01:35Z</time>
      </trkpt>
      <trkpt lat="49.29462" lon="-0.46425">
        <ele>9.27</ele>
        <time>2018-09-07T13:01:47Z</time>
      </trkpt>
      <trkpt lat="49.29466" lon="-0.4643">
        <ele>9.75</ele>
        <time>2018-09-07T13:01:48Z</time>
      </trkpt>
      <trkpt lat="49.29534" lon="-0.46499">
        <ele>12.15</ele>
        <time>2018-09-07T13:02:04Z</time>
      </trkpt>
      <trkpt lat="49.29735" lon="-0.46504">
        <ele>13.6</ele>
        <time>2018-09-07T13:02:54Z</time>
      </trkpt>
      <trkpt lat="49.29824" lon="-0.46498">
        <ele>13.6</ele>
        <time>2018-09-07T13:03:13Z</time>
      </trkpt>
      <trkpt lat="49.29902" lon="-0.46389">
        <ele>13.12</ele>
        <time>2018-09-07T13:03:32Z</time>
      </trkpt>
      <trkpt lat="49.29926" lon="-0.46363">
        <ele>12.15</ele>
        <time>2018-09-07T13:03:39Z</time>
      </trkpt>
      <trkpt lat="49.29939" lon="-0.46354">
        <ele>12.15</ele>
        <time>2018-09-07T13:03:42Z</time>
      </trkpt>
      <trkpt lat="49.30106" lon="-0.46317">
        <ele>9.75</ele>
        <time>2018-09-07T13:04:16Z</time>
      </trkpt>
      <trkpt lat="49.30163" lon="-0.46292">
        <ele>9.75</ele>
        <time>2018-09-07T13:04:35Z</time>
      </trkpt>
      <trkpt lat="49.30221" lon="-0.46309">
        <ele>8.31</ele>
        <time>2018-09-07T13:04:50Z</time>
      </trkpt>
      <trkpt lat="49.30225" lon="-0.46312">
        <ele>7.83</ele>
        <time>2018-09-07T13:04:51Z</time>
      </trkpt>
      <trkpt lat="49.30245" lon="-0.46336">
        <ele>6.87</ele>
        <time>2018-09-07T13:04:57Z</time>
      </trkpt>
      <trkpt lat="49.30279" lon="-0.464">
        <ele>6.39</ele>
        <time>2018-09-07T13:05:07Z</time>
      </trkpt>
      <trkpt lat="49.30362" lon="-0.465">
        <ele>4.94</ele>
        <time>2018-09-07T13:05:27Z</time>
      </trkpt>
      <trkpt lat="49.3037" lon="-0.46509">
        <ele>4.94</ele>
        <time>2018-09-07T13:05:29Z</time>
      </trkpt>
      <trkpt lat="49.30401" lon="-0.46527">
        <ele>4.46</ele>
        <time>2018-09-07T13:05:36Z</time>
      </trkpt>
      <trkpt lat="49.30421" lon="-0.46524">
        <ele>3.5</ele>
        <time>2018-09-07T13:05:43Z</time>
      </trkpt>
      <trkpt lat="49.3043" lon="-0.46519">
        <ele>3.02</ele>
        <time>2018-09-07T13:05:59Z</time>
      </trkpt>
      <trkpt lat="49.30456" lon="-0.46511">
        <ele>3.5</ele>
        <time>2018-09-07T13:06:30Z</time>
      </trkpt>
      <trkpt lat="49.30479" lon="-0.46494">
        <ele>3.98</ele>
        <time>2018-09-07T13:06:36Z</time>
      </trkpt>
      <trkpt lat="49.30661" lon="-0.46523">
        <ele>8.31</ele>
        <time>2018-09-07T13:07:18Z</time>
      </trkpt>
      <trkpt lat="49.30727" lon="-0.4649">
        <ele>12.15</ele>
        <time>2018-09-07T13:07:34Z</time>
      </trkpt>
      <trkpt lat="49.30786" lon="-0.46331">
        <ele>13.6</ele>
        <time>2018-09-07T13:07:55Z</time>
      </trkpt>
      <trkpt lat="49.30887" lon="-0.46277">
        <ele>17.44</ele>
        <time>2018-09-07T13:08:15Z</time>
      </trkpt>
      <trkpt lat="49.30994" lon="-0.4625">
        <ele>20.81</ele>
        <time>2018-09-07T13:08:38Z</time>
      </trkpt>
      <trkpt lat="49.31134" lon="-0.46231">
        <ele>23.21</ele>
        <time>2018-09-07T13:09:07Z</time>
      </trkpt>
      <trkpt lat="49.31265" lon="-0.46221">
        <ele>24.17</ele>
        <time>2018-09-07T13:09:31Z</time>
      </trkpt>
      <trkpt lat="49.31328" lon="-0.46215">
        <ele>24.65</ele>
        <time>2018-09-07T13:09:42Z</time>
      </trkpt>
      <trkpt lat="49.31448" lon="-0.46153">
        <ele>27.05</ele>
        <time>2018-09-07T13:10:06Z</time>
      </trkpt>
      <trkpt lat="49.31539" lon="-0.46129">
        <ele>28.02</ele>
        <time>2018-09-07T13:10:24Z</time>
      </trkpt>
      <trkpt lat="49.31619" lon="-0.46031">
        <ele>29.94</ele>
        <time>2018-09-07T13:10:44Z</time>
      </trkpt>
      <trkpt lat="49.31692" lon="-0.45892">
        <ele>31.38</ele>
        <time>2018-09-07T13:11:06Z</time>
      </trkpt>
      <trkpt lat="49.31765" lon="-0.45778">
        <ele>31.38</ele>
        <time>2018-09-07T13:11:25Z</time>
      </trkpt>
      <trkpt lat="49.31818" lon="-0.45721">
        <ele>30.9</ele>
        <time>2018-09-07T13:11:37Z</time>
      </trkpt>
      <trkpt lat="49.3195" lon="-0.45691">
        <ele>30.42</ele>
        <time>2018-09-07T13:12:02Z</time>
      </trkpt>
      <trkpt lat="49.32082" lon="-0.45661">
        <ele>28.98</ele>
        <time>2018-09-07T13:12:27Z</time>
      </trkpt>
      <trkpt lat="49.32203" lon="-0.45636">
        <ele>26.09</ele>
        <time>2018-09-07T13:12:50Z</time>
      </trkpt>
      <trkpt lat="49.32222" lon="-0.45629">
        <ele>24.65</ele>
        <time>2018-09-07T13:12:55Z</time>
      </trkpt>
      <trkpt lat="49.32224" lon="-0.45597">
        <ele>24.17</ele>
        <time>2018-09-07T13:13:05Z</time>
      </trkpt>
      <trkpt lat="49.32211" lon="-0.45579">
        <ele>23.69</ele>
        <time>2018-09-07T13:13:17Z</time>
      </trkpt>
      <trkpt lat="49.32211" lon="-0.45541">
        <ele>24.17</ele>
        <time>2018-09-07T13:13:23Z</time>
      </trkpt>
      <trkpt lat="49.32217" lon="-0.45534">
        <ele>24.17</ele>
        <time>2018-09-07T13:13:25Z</time>
      </trkpt>
      <trkpt lat="49.32228" lon="-0.45525">
        <ele>23.69</ele>
        <time>2018-09-07T13:13:28Z</time>
      </trkpt>
      <trkpt lat="49.32241" lon="-0.45498">
        <ele>23.21</ele>
        <time>2018-09-07T13:13:33Z</time>
      </trkpt>
      <trkpt lat="49.32266" lon="-0.45369">
        <ele>24.65</ele>
        <time>2018-09-07T13:13:51Z</time>
      </trkpt>
      <trkpt lat="49.32272" lon="-0.45357">
        <ele>24.65</ele>
        <time>2018-09-07T13:13:53Z</time>
      </trkpt>
      <trkpt lat="49.32275" lon="-0.45312">
        <ele>24.65</ele>
        <time>2018-09-07T13:14:02Z</time>
      </trkpt>
      <trkpt lat="49.3229" lon="-0.45295">
        <ele>24.65</ele>
        <time>2018-09-07T13:14:09Z</time>
      </trkpt>
      <trkpt lat="49.32322" lon="-0.45207">
        <ele>25.13</ele>
        <time>2018-09-07T13:14:23Z</time>
      </trkpt>
      <trkpt lat="49.32408" lon="-0.45006">
        <ele>23.21</ele>
        <time>2018-09-07T13:14:52Z</time>
      </trkpt>
      <trkpt lat="49.32474" lon="-0.44873">
        <ele>20.32</ele>
        <time>2018-09-07T13:15:11Z</time>
      </trkpt>
      <trkpt lat="49.32536" lon="-0.44743">
        <ele>19.36</ele>
        <time>2018-09-07T13:15:31Z</time>
      </trkpt>
      <trkpt lat="49.32544" lon="-0.44734">
        <ele>19.36</ele>
        <time>2018-09-07T13:15:33Z</time>
      </trkpt>
      <trkpt lat="49.32658" lon="-0.44728">
        <ele>17.44</ele>
        <time>2018-09-07T13:15:54Z</time>
      </trkpt>
      <trkpt lat="49.32727" lon="-0.4473">
        <ele>14.56</ele>
        <time>2018-09-07T13:16:12Z</time>
      </trkpt>
      <trkpt lat="49.32734" lon="-0.44751">
        <ele>14.08</ele>
        <time>2018-09-07T13:16:17Z</time>
      </trkpt>
      <trkpt lat="49.32742" lon="-0.44885">
        <ele>14.08</ele>
        <time>2018-09-07T13:16:33Z</time>
      </trkpt>
      <trkpt lat="49.32755" lon="-0.45026">
        <ele>12.15</ele>
        <time>2018-09-07T13:16:50Z</time>
      </trkpt>
      <trkpt lat="49.32765" lon="-0.45156">
        <ele>11.19</ele>
        <time>2018-09-07T13:17:06Z</time>
      </trkpt>
      <trkpt lat="49.3277" lon="-0.45253">
        <ele>10.23</ele>
        <time>2018-09-07T13:17:25Z</time>
      </trkpt>
      <trkpt lat="49.32773" lon="-0.45381">
        <ele>11.67</ele>
        <time>2018-09-07T13:17:43Z</time>
      </trkpt>
      <trkpt lat="49.32776" lon="-0.4555">
        <ele>10.23</ele>
        <time>2018-09-07T13:18:08Z</time>
      </trkpt>
      <trkpt lat="49.3278" lon="-0.4558">
        <ele>10.23</ele>
        <time>2018-09-07T13:18:16Z</time>
      </trkpt>
      <trkpt lat="49.3281" lon="-0.45582">
        <ele>8.79</ele>
        <time>2018-09-07T13:18:29Z</time>
      </trkpt>
      <trkpt lat="49.32818" lon="-0.45594">
        <ele>7.83</ele>
        <time>2018-09-07T13:18:33Z</time>
      </trkpt>
      <trkpt lat="49.32819" lon="-0.45613">
        <ele>7.83</ele>
        <time>2018-09-07T13:18:37Z</time>
      </trkpt>
      <trkpt lat="49.32821" lon="-0.45672">
        <ele>6.87</ele>
        <time>2018-09-07T13:18:55Z</time>
      </trkpt>
      <trkpt lat="49.3282" lon="-0.45675">
        <ele>6.39</ele>
        <time>2018-09-07T13:19:04Z</time>
      </trkpt>
      <trkpt lat="49.32856" lon="-0.45671">
        <ele>5.42</ele>
        <time>2018-09-07T13:19:18Z</time>
      </trkpt>
      <trkpt lat="49.32939" lon="-0.45663">
        <ele>3.02</ele>
        <time>2018-09-07T13:19:40Z</time>
      </trkpt>
      <trkpt lat="49.32943" lon="-0.45663">
        <ele>3.02</ele>
        <time>2018-09-07T13:19:51Z</time>
      </trkpt>
      <trkpt lat="49.32954" lon="-0.45666">
        <ele>2.06</ele>
        <time>2018-09-07T13:20:05Z</time>
      </trkpt>
      <trkpt lat="49.32975" lon="-0.4567">
        <ele>1.58</ele>
        <time>2018-09-07T13:20:17Z</time>
      </trkpt>
      <trkpt lat="49.32998" lon="-0.45699">
        <ele>2.06</ele>
        <time>2018-09-07T13:20:31Z</time>
      </trkpt>
      <trkpt lat="49.33035" lon="-0.45727">
        <ele>2.06</ele>
        <time>2018-09-07T13:20:47Z</time>
      </trkpt>
      <trkpt lat="49.33086" lon="-0.45783">
        <ele>1.1</ele>
        <time>2018-09-07T13:21:08Z</time>
      </trkpt>
      <trkpt lat="49.3313" lon="-0.45797">
        <ele>0.62</ele>
        <time>2018-09-07T13:21:55Z</time>
      </trkpt>
      <trkpt lat="49.33145" lon="-0.45799">
        <ele>0.62</ele>
        <time>2018-09-07T13:22:20Z</time>
      </trkpt>
      <trkpt lat="49.33175" lon="-0.45796">
        <ele>0.14</ele>
        <time>2018-09-07T13:22:38Z</time>
      </trkpt>
      <trkpt lat="49.33212" lon="-0.458">
        <ele>0.14</ele>
        <time>2018-09-07T13:22:56Z</time>
      </trkpt>
      <trkpt lat="49.33214" lon="-0.458">
        <ele>-0.34</ele>
        <time>2018-09-07T13:22:57Z</time>
      </trkpt>
      <trkpt lat="49.33225" lon="-0.45867">
        <ele>1.1</ele>
        <time>2018-09-07T13:23:11Z</time>
      </trkpt>
      <trkpt lat="49.33237" lon="-0.45991">
        <ele>0.62</ele>
        <time>2018-09-07T13:23:34Z</time>
      </trkpt>
      <trkpt lat="49.33243" lon="-0.46139">
        <ele>0.62</ele>
        <time>2018-09-07T13:24:02Z</time>
      </trkpt>
      <trkpt lat="49.33254" lon="-0.46249">
        <ele>0.62</ele>
        <time>2018-09-07T13:24:22Z</time>
      </trkpt>
      <trkpt lat="49.33269" lon="-0.46262">
        <ele>0.62</ele>
        <time>2018-09-07T13:24:35Z</time>
      </trkpt>
      <trkpt lat="49.33283" lon="-0.46224">
        <ele>0.62</ele>
        <time>2018-09-07T13:24:50Z</time>
      </trkpt>
      <trkpt lat="49.33316" lon="-0.46167">
        <ele>1.1</ele>
        <time>2018-09-07T13:25:06Z</time>
      </trkpt>
      <trkpt lat="49.3335" lon="-0.46138">
        <ele>1.1</ele>
        <time>2018-09-07T13:25:23Z</time>
      </trkpt>
      <trkpt lat="49.33378" lon="-0.46111">
        <ele>0.62</ele>
        <time>2018-09-07T13:25:39Z</time>
      </trkpt>
      <trkpt lat="49.33412" lon="-0.4607">
        <ele>0.14</ele>
        <time>2018-09-07T13:25:58Z</time>
      </trkpt>
      <trkpt lat="49.33438" lon="-0.46055">
        <ele>-0.34</ele>
        <time>2018-09-07T13:27:26Z</time>
      </trkpt>
      <trkpt lat="49.33442" lon="-0.46049">
        <ele>-0.34</ele>
        <time>2018-09-07T13:29:24Z</time>
      </trkpt>
      <trkpt lat="49.33454" lon="-0.46028">
        <ele>0.14</ele>
        <time>2018-09-07T13:31:43Z</time>
      </trkpt>
      <trkpt lat="49.33477" lon="-0.45992">
        <ele>1.1</ele>
        <time>2018-09-07T13:32:07Z</time>
      </trkpt>
      <trkpt lat="49.3351" lon="-0.45958">
        <ele>1.1</ele>
        <time>2018-09-07T13:32:41Z</time>
      </trkpt>
      <trkpt lat="49.33511" lon="-0.45956">
        <ele>1.1</ele>
        <time>2018-09-07T13:33:08Z</time>
      </trkpt>
      <trkpt lat="49.33522" lon="-0.45934">
        <ele>1.1</ele>
        <time>2018-09-07T13:33:46Z</time>
      </trkpt>
      <trkpt lat="49.33523" lon="-0.45934">
        <ele>1.1</ele>
        <time>2018-09-07T13:34:24Z</time>
      </trkpt>
      <trkpt lat="49.33539" lon="-0.45903">
        <ele>0.14</ele>
        <time>2018-09-07T13:36:22Z</time>
      </trkpt>
      <trkpt lat="49.33571" lon="-0.45853">
        <ele>0.14</ele>
        <time>2018-09-07T13:36:46Z</time>
      </trkpt>
      <trkpt lat="49.33604" lon="-0.45807">
        <ele>0.14</ele>
        <time>2018-09-07T13:37:08Z</time>
      </trkpt>
      <trkpt lat="49.33615" lon="-0.45798">
        <ele>0.62</ele>
        <time>2018-09-07T13:37:16Z</time>
      </trkpt>
      <trkpt lat="49.3362" lon="-0.45785">
        <ele>0.62</ele>
        <time>2018-09-07T13:37:32Z</time>
      </trkpt>
      <trkpt lat="49.33628" lon="-0.4577">
        <ele>1.1</ele>
        <time>2018-09-07T13:37:44Z</time>
      </trkpt>
      <trkpt lat="49.33634" lon="-0.45774">
        <ele>1.1</ele>
        <time>2018-09-07T13:38:05Z</time>
      </trkpt>
      <trkpt lat="49.33639" lon="-0.45791">
        <ele>1.58</ele>
        <time>2018-09-07T13:41:28Z</time>
      </trkpt>
      <trkpt lat="49.33629" lon="-0.45783">
        <ele>0.62</ele>
        <time>2018-09-07T13:42:16Z</time>
      </trkpt>
      <trkpt lat="49.33615" lon="-0.4576">
        <ele>1.1</ele>
        <time>2018-09-07T13:42:38Z</time>
      </trkpt>
      <trkpt lat="49.33613" lon="-0.45756">
        <ele>1.1</ele>
        <time>2018-09-07T13:42:58Z</time>
      </trkpt>
      <trkpt lat="49.33609" lon="-0.45711">
        <ele>2.06</ele>
        <time>2018-09-07T13:43:19Z</time>
      </trkpt>
      <trkpt lat="49.33604" lon="-0.45684">
        <ele>2.54</ele>
        <time>2018-09-07T13:43:38Z</time>
      </trkpt>
      <trkpt lat="49.33597" lon="-0.45646">
        <ele>2.06</ele>
        <time>2018-09-07T13:43:53Z</time>
      </trkpt>
      <trkpt lat="49.33588" lon="-0.4558">
        <ele>2.06</ele>
        <time>2018-09-07T13:44:17Z</time>
      </trkpt>
      <trkpt lat="49.33579" lon="-0.45503">
        <ele>2.06</ele>
        <time>2018-09-07T13:44:40Z</time>
      </trkpt>
      <trkpt lat="49.33569" lon="-0.45414">
        <ele>1.58</ele>
        <time>2018-09-07T13:45:03Z</time>
      </trkpt>
      <trkpt lat="49.33557" lon="-0.4532">
        <ele>1.58</ele>
        <time>2018-09-07T13:45:26Z</time>
      </trkpt>
      <trkpt lat="49.33546" lon="-0.45234">
        <ele>1.58</ele>
        <time>2018-09-07T13:45:45Z</time>
      </trkpt>
      <trkpt lat="49.33545" lon="-0.45222">
        <ele>1.58</ele>
        <time>2018-09-07T13:45:58Z</time>
      </trkpt>
      <trkpt lat="49.3355" lon="-0.45203">
        <ele>1.1</ele>
        <time>2018-09-07T13:46:17Z</time>
      </trkpt>
      <trkpt lat="49.33563" lon="-0.45189">
        <ele>1.58</ele>
        <time>2018-09-07T13:46:27Z</time>
      </trkpt>
      <trkpt lat="49.33561" lon="-0.45159">
        <ele>1.1</ele>
        <time>2018-09-07T13:46:36Z</time>
      </trkpt>
      <trkpt lat="49.33558" lon="-0.45122">
        <ele>1.58</ele>
        <time>2018-09-07T13:46:59Z</time>
      </trkpt>
      <trkpt lat="49.33555" lon="-0.45062">
        <ele>1.1</ele>
        <time>2018-09-07T13:47:19Z</time>
      </trkpt>
      <trkpt lat="49.3355" lon="-0.44979">
        <ele>1.1</ele>
        <time>2018-09-07T13:47:42Z</time>
      </trkpt>
      <trkpt lat="49.33545" lon="-0.44894">
        <ele>1.58</ele>
        <time>2018-09-07T13:48:05Z</time>
      </trkpt>
      <trkpt lat="49.33542" lon="-0.44808">
        <ele>2.06</ele>
        <time>2018-09-07T13:48:28Z</time>
      </trkpt>
      <trkpt lat="49.33542" lon="-0.44738">
        <ele>1.1</ele>
        <time>2018-09-07T13:48:50Z</time>
      </trkpt>
      <trkpt lat="49.33539" lon="-0.44669">
        <ele>2.54</ele>
        <time>2018-09-07T13:49:09Z</time>
      </trkpt>
      <trkpt lat="49.33538" lon="-0.44584">
        <ele>2.06</ele>
        <time>2018-09-07T13:49:35Z</time>
      </trkpt>
      <trkpt lat="49.33543" lon="-0.44542">
        <ele>2.06</ele>
        <time>2018-09-07T13:49:51Z</time>
      </trkpt>
      <trkpt lat="49.33567" lon="-0.44531">
        <ele>2.54</ele>
        <time>2018-09-07T13:50:04Z</time>
      </trkpt>
      <trkpt lat="49.33574" lon="-0.44508">
        <ele>3.5</ele>
        <time>2018-09-07T13:50:10Z</time>
      </trkpt>
      <trkpt lat="49.3356" lon="-0.44425">
        <ele>3.5</ele>
        <time>2018-09-07T13:50:29Z</time>
      </trkpt>
      <trkpt lat="49.3354" lon="-0.44316">
        <ele>3.98</ele>
        <time>2018-09-07T13:50:55Z</time>
      </trkpt>
      <trkpt lat="49.33524" lon="-0.44228">
        <ele>3.98</ele>
        <time>2018-09-07T13:51:19Z</time>
      </trkpt>
      <trkpt lat="49.33487" lon="-0.4421">
        <ele>2.06</ele>
        <time>2018-09-07T13:51:35Z</time>
      </trkpt>
      <trkpt lat="49.33412" lon="-0.44175">
        <ele>1.1</ele>
        <time>2018-09-07T13:51:50Z</time>
      </trkpt>
      <trkpt lat="49.33345" lon="-0.44152">
        <ele>1.1</ele>
        <time>2018-09-07T13:52:12Z</time>
      </trkpt>
      <trkpt lat="49.33319" lon="-0.44157">
        <ele>2.54</ele>
        <time>2018-09-07T13:52:25Z</time>
      </trkpt>
      <trkpt lat="49.33317" lon="-0.44143">
        <ele>2.54</ele>
        <time>2018-09-07T13:52:30Z</time>
      </trkpt>
      <trkpt lat="49.33286" lon="-0.44122">
        <ele>2.06</ele>
        <time>2018-09-07T13:52:45Z</time>
      </trkpt>
      <trkpt lat="49.33275" lon="-0.44121">
        <ele>2.54</ele>
        <time>2018-09-07T13:52:48Z</time>
      </trkpt>
      <trkpt lat="49.33259" lon="-0.44128">
        <ele>3.02</ele>
        <time>2018-09-07T13:52:52Z</time>
      </trkpt>
      <trkpt lat="49.33193" lon="-0.44185">
        <ele>1.1</ele>
        <time>2018-09-07T13:53:15Z</time>
      </trkpt>
      <trkpt lat="49.3316" lon="-0.44253">
        <ele>2.06</ele>
        <time>2018-09-07T13:53:34Z</time>
      </trkpt>
      <trkpt lat="49.33131" lon="-0.44305">
        <ele>1.1</ele>
        <time>2018-09-07T13:53:52Z</time>
      </trkpt>
      <trkpt lat="49.33099" lon="-0.44271">
        <ele>3.5</ele>
        <time>2018-09-07T13:54:03Z</time>
      </trkpt>
      <trkpt lat="49.3306" lon="-0.44241">
        <ele>4.94</ele>
        <time>2018-09-07T13:54:15Z</time>
      </trkpt>
      <trkpt lat="49.33004" lon="-0.44252">
        <ele>6.87</ele>
        <time>2018-09-07T13:54:51Z</time>
      </trkpt>
      <trkpt lat="49.32994" lon="-0.44253">
        <ele>7.35</ele>
        <time>2018-09-07T13:55:02Z</time>
      </trkpt>
      <trkpt lat="49.32987" lon="-0.44177">
        <ele>7.83</ele>
        <time>2018-09-07T13:55:13Z</time>
      </trkpt>
      <trkpt lat="49.32974" lon="-0.44005">
        <ele>8.79</ele>
        <time>2018-09-07T13:55:33Z</time>
      </trkpt>
      <trkpt lat="49.32962" lon="-0.43836">
        <ele>8.79</ele>
        <time>2018-09-07T13:55:54Z</time>
      </trkpt>
      <trkpt lat="49.32951" lon="-0.43673">
        <ele>9.27</ele>
        <time>2018-09-07T13:56:14Z</time>
      </trkpt>
      <trkpt lat="49.32942" lon="-0.43539">
        <ele>8.79</ele>
        <time>2018-09-07T13:56:31Z</time>
      </trkpt>
      <trkpt lat="49.3294" lon="-0.43408">
        <ele>8.79</ele>
        <time>2018-09-07T13:56:50Z</time>
      </trkpt>
      <trkpt lat="49.32929" lon="-0.43329">
        <ele>8.31</ele>
        <time>2018-09-07T13:57:09Z</time>
      </trkpt>
      <trkpt lat="49.3293" lon="-0.43326">
        <ele>7.83</ele>
        <time>2018-09-07T13:57:12Z</time>
      </trkpt>
      <trkpt lat="49.3296" lon="-0.43324">
        <ele>8.31</ele>
        <time>2018-09-07T13:57:26Z</time>
      </trkpt>
      <trkpt lat="49.32983" lon="-0.43303">
        <ele>7.83</ele>
        <time>2018-09-07T13:57:38Z</time>
      </trkpt>
      <trkpt lat="49.33045" lon="-0.43228">
        <ele>7.83</ele>
        <time>2018-09-07T13:57:51Z</time>
      </trkpt>
      <trkpt lat="49.33159" lon="-0.43125">
        <ele>4.94</ele>
        <time>2018-09-07T13:58:11Z</time>
      </trkpt>
      <trkpt lat="49.33226" lon="-0.42927">
        <ele>3.98</ele>
        <time>2018-09-07T13:58:33Z</time>
      </trkpt>
      <trkpt lat="49.33306" lon="-0.42788">
        <ele>3.98</ele>
        <time>2018-09-07T13:58:52Z</time>
      </trkpt>
      <trkpt lat="49.33441" lon="-0.42668">
        <ele>3.98</ele>
        <time>2018-09-07T13:59:17Z</time>
      </trkpt>
      <trkpt lat="49.33481" lon="-0.42634">
        <ele>3.98</ele>
        <time>2018-09-07T13:59:30Z</time>
      </trkpt>
      <trkpt lat="49.3351" lon="-0.4266">
        <ele>4.46</ele>
        <time>2018-09-07T13:59:43Z</time>
      </trkpt>
      <trkpt lat="49.33529" lon="-0.4266">
        <ele>4.46</ele>
        <time>2018-09-07T13:59:57Z</time>
      </trkpt>
      <trkpt lat="49.33528" lon="-0.42644">
        <ele>3.98</ele>
        <time>2018-09-07T14:00:17Z</time>
      </trkpt>
      <trkpt lat="49.33529" lon="-0.42597">
        <ele>4.46</ele>
        <time>2018-09-07T14:00:39Z</time>
      </trkpt>
      <trkpt lat="49.33535" lon="-0.42498">
        <ele>4.94</ele>
        <time>2018-09-07T14:01:04Z</time>
      </trkpt>
      <trkpt lat="49.33532" lon="-0.42456">
        <ele>4.94</ele>
        <time>2018-09-07T14:01:24Z</time>
      </trkpt>
      <trkpt lat="49.33535" lon="-0.42424">
        <ele>4.94</ele>
        <time>2018-09-07T14:01:39Z</time>
      </trkpt>
      <trkpt lat="49.33543" lon="-0.42367">
        <ele>4.46</ele>
        <time>2018-09-07T14:02:01Z</time>
      </trkpt>
      <trkpt lat="49.3355" lon="-0.42289">
        <ele>5.42</ele>
        <time>2018-09-07T14:02:25Z</time>
      </trkpt>
      <trkpt lat="49.33553" lon="-0.42227">
        <ele>4.94</ele>
        <time>2018-09-07T14:02:45Z</time>
      </trkpt>
      <trkpt lat="49.33557" lon="-0.42132">
        <ele>4.94</ele>
        <time>2018-09-07T14:03:06Z</time>
      </trkpt>
      <trkpt lat="49.33563" lon="-0.42033">
        <ele>4.94</ele>
        <time>2018-09-07T14:03:28Z</time>
      </trkpt>
      <trkpt lat="49.33578" lon="-0.41968">
        <ele>4.94</ele>
        <time>2018-09-07T14:03:44Z</time>
      </trkpt>
      <trkpt lat="49.33579" lon="-0.4191">
        <ele>4.94</ele>
        <time>2018-09-07T14:03:59Z</time>
      </trkpt>
      <trkpt lat="49.33579" lon="-0.41812">
        <ele>4.46</ele>
        <time>2018-09-07T14:04:21Z</time>
      </trkpt>
      <trkpt lat="49.33569" lon="-0.41743">
        <ele>4.46</ele>
        <time>2018-09-07T14:04:43Z</time>
      </trkpt>
      <trkpt lat="49.33574" lon="-0.4167">
        <ele>4.94</ele>
        <time>2018-09-07T14:05:03Z</time>
      </trkpt>
      <trkpt lat="49.33571" lon="-0.41601">
        <ele>4.46</ele>
        <time>2018-09-07T14:05:31Z</time>
      </trkpt>
      <trkpt lat="49.33569" lon="-0.4158">
        <ele>4.94</ele>
        <time>2018-09-07T14:05:55Z</time>
      </trkpt>
      <trkpt lat="49.33568" lon="-0.41567">
        <ele>4.46</ele>
        <time>2018-09-07T14:06:23Z</time>
      </trkpt>
      <trkpt lat="49.33566" lon="-0.41539">
        <ele>4.94</ele>
        <time>2018-09-07T14:06:51Z</time>
      </trkpt>
      <trkpt lat="49.33566" lon="-0.41483">
        <ele>4.94</ele>
        <time>2018-09-07T14:07:12Z</time>
      </trkpt>
      <trkpt lat="49.33563" lon="-0.41406">
        <ele>5.42</ele>
        <time>2018-09-07T14:07:32Z</time>
      </trkpt>
      <trkpt lat="49.3356" lon="-0.41343">
        <ele>4.46</ele>
        <time>2018-09-07T14:07:56Z</time>
      </trkpt>
      <trkpt lat="49.33556" lon="-0.41293">
        <ele>4.94</ele>
        <time>2018-09-07T14:08:14Z</time>
      </trkpt>
      <trkpt lat="49.33547" lon="-0.4119">
        <ele>4.94</ele>
        <time>2018-09-07T14:08:41Z</time>
      </trkpt>
      <trkpt lat="49.33535" lon="-0.41089">
        <ele>5.42</ele>
        <time>2018-09-07T14:09:03Z</time>
      </trkpt>
      <trkpt lat="49.33525" lon="-0.41066">
        <ele>4.94</ele>
        <time>2018-09-07T14:09:10Z</time>
      </trkpt>
      <trkpt lat="49.33523" lon="-0.41008">
        <ele>5.42</ele>
        <time>2018-09-07T14:09:23Z</time>
      </trkpt>
      <trkpt lat="49.33504" lon="-0.40908">
        <ele>4.94</ele>
        <time>2018-09-07T14:09:52Z</time>
      </trkpt>
      <trkpt lat="49.33496" lon="-0.40846">
        <ele>4.46</ele>
        <time>2018-09-07T14:10:08Z</time>
      </trkpt>
      <trkpt lat="49.33481" lon="-0.4075">
        <ele>4.94</ele>
        <time>2018-09-07T14:10:28Z</time>
      </trkpt>
      <trkpt lat="49.33475" lon="-0.40716">
        <ele>4.46</ele>
        <time>2018-09-07T14:10:48Z</time>
      </trkpt>
      <trkpt lat="49.33467" lon="-0.40678">
        <ele>5.42</ele>
        <time>2018-09-07T14:11:10Z</time>
      </trkpt>
      <trkpt lat="49.33459" lon="-0.40622">
        <ele>5.42</ele>
        <time>2018-09-07T14:11:27Z</time>
      </trkpt>
      <trkpt lat="49.33459" lon="-0.40613">
        <ele>5.42</ele>
        <time>2018-09-07T14:11:48Z</time>
      </trkpt>
      <trkpt lat="49.33448" lon="-0.40539">
        <ele>4.94</ele>
        <time>2018-09-07T14:12:08Z</time>
      </trkpt>
      <trkpt lat="49.3343" lon="-0.40434">
        <ele>5.42</ele>
        <time>2018-09-07T14:12:34Z</time>
      </trkpt>
      <trkpt lat="49.33415" lon="-0.40334">
        <ele>5.42</ele>
        <time>2018-09-07T14:12:59Z</time>
      </trkpt>
      <trkpt lat="49.33393" lon="-0.40298">
        <ele>6.39</ele>
        <time>2018-09-07T14:13:16Z</time>
      </trkpt>
      <trkpt lat="49.3337" lon="-0.40266">
        <ele>6.87</ele>
        <time>2018-09-07T14:13:30Z</time>
      </trkpt>
      <trkpt lat="49.33358" lon="-0.40224">
        <ele>7.35</ele>
        <time>2018-09-07T14:13:43Z</time>
      </trkpt>
      <trkpt lat="49.33356" lon="-0.402">
        <ele>7.83</ele>
        <time>2018-09-07T14:13:47Z</time>
      </trkpt>
      <trkpt lat="49.33336" lon="-0.40122">
        <ele>8.31</ele>
        <time>2018-09-07T14:14:05Z</time>
      </trkpt>
      <trkpt lat="49.33315" lon="-0.40118">
        <ele>8.31</ele>
        <time>2018-09-07T14:14:23Z</time>
      </trkpt>
      <trkpt lat="49.33309" lon="-0.40116">
        <ele>8.31</ele>
        <time>2018-09-07T14:14:39Z</time>
      </trkpt>
      <trkpt lat="49.33303" lon="-0.40103">
        <ele>8.31</ele>
        <time>2018-09-07T14:14:43Z</time>
      </trkpt>
      <trkpt lat="49.33289" lon="-0.39964">
        <ele>9.75</ele>
        <time>2018-09-07T14:14:59Z</time>
      </trkpt>
      <trkpt lat="49.33271" lon="-0.3977">
        <ele>9.75</ele>
        <time>2018-09-07T14:15:24Z</time>
      </trkpt>
      <trkpt lat="49.33254" lon="-0.39604">
        <ele>9.27</ele>
        <time>2018-09-07T14:15:47Z</time>
      </trkpt>
      <trkpt lat="49.3324" lon="-0.39458">
        <ele>8.31</ele>
        <time>2018-09-07T14:16:13Z</time>
      </trkpt>
      <trkpt lat="49.33228" lon="-0.39414">
        <ele>7.35</ele>
        <time>2018-09-07T14:16:29Z</time>
      </trkpt>
      <trkpt lat="49.33213" lon="-0.394">
        <ele>6.39</ele>
        <time>2018-09-07T14:16:58Z</time>
      </trkpt>
      <trkpt lat="49.332" lon="-0.39382">
        <ele>6.39</ele>
        <time>2018-09-07T14:17:07Z</time>
      </trkpt>
      <trkpt lat="49.33201" lon="-0.39371">
        <ele>4.94</ele>
        <time>2018-09-07T14:17:37Z</time>
      </trkpt>
      <trkpt lat="49.33201" lon="-0.39358">
        <ele>4.94</ele>
        <time>2018-09-07T14:18:13Z</time>
      </trkpt>
      <trkpt lat="49.33192" lon="-0.39345">
        <ele>5.42</ele>
        <time>2018-09-07T14:18:33Z</time>
      </trkpt>
      <trkpt lat="49.33181" lon="-0.39299">
        <ele>5.42</ele>
        <time>2018-09-07T14:18:57Z</time>
      </trkpt>
      <trkpt lat="49.33165" lon="-0.39235">
        <ele>5.42</ele>
        <time>2018-09-07T14:19:17Z</time>
      </trkpt>
      <trkpt lat="49.33159" lon="-0.39198">
        <ele>5.42</ele>
        <time>2018-09-07T14:19:34Z</time>
      </trkpt>
      <trkpt lat="49.33152" lon="-0.39171">
        <ele>5.42</ele>
        <time>2018-09-07T14:19:52Z</time>
      </trkpt>
      <trkpt lat="49.33153" lon="-0.39166">
        <ele>5.42</ele>
        <time>2018-09-07T14:19:55Z</time>
      </trkpt>
      <trkpt lat="49.33136" lon="-0.39099">
        <ele>4.94</ele>
        <time>2018-09-07T14:20:12Z</time>
      </trkpt>
      <trkpt lat="49.33118" lon="-0.39031">
        <ele>4.94</ele>
        <time>2018-09-07T14:20:30Z</time>
      </trkpt>
      <trkpt lat="49.33109" lon="-0.38997">
        <ele>4.94</ele>
        <time>2018-09-07T14:20:52Z</time>
      </trkpt>
      <trkpt lat="49.33097" lon="-0.38957">
        <ele>5.42</ele>
        <time>2018-09-07T14:21:24Z</time>
      </trkpt>
      <trkpt lat="49.33082" lon="-0.389">
        <ele>4.46</ele>
        <time>2018-09-07T14:21:40Z</time>
      </trkpt>
      <trkpt lat="49.33066" lon="-0.38831">
        <ele>4.94</ele>
        <time>2018-09-07T14:22:02Z</time>
      </trkpt>
      <trkpt lat="49.33045" lon="-0.38738">
        <ele>4.46</ele>
        <time>2018-09-07T14:22:27Z</time>
      </trkpt>
      <trkpt lat="49.33029" lon="-0.38655">
        <ele>4.94</ele>
        <time>2018-09-07T14:22:44Z</time>
      </trkpt>
      <trkpt lat="49.33008" lon="-0.38562">
        <ele>4.94</ele>
        <time>2018-09-07T14:23:03Z</time>
      </trkpt>
      <trkpt lat="49.3299" lon="-0.38479">
        <ele>5.42</ele>
        <time>2018-09-07T14:23:19Z</time>
      </trkpt>
      <trkpt lat="49.32965" lon="-0.3837">
        <ele>4.94</ele>
        <time>2018-09-07T14:23:40Z</time>
      </trkpt>
      <trkpt lat="49.3293" lon="-0.38233">
        <ele>4.46</ele>
        <time>2018-09-07T14:24:05Z</time>
      </trkpt>
      <trkpt lat="49.32909" lon="-0.38145">
        <ele>4.46</ele>
        <time>2018-09-07T14:24:25Z</time>
      </trkpt>
      <trkpt lat="49.32909" lon="-0.38142">
        <ele>3.5</ele>
        <time>2018-09-07T14:24:58Z</time>
      </trkpt>
      <trkpt lat="49.32905" lon="-0.38136">
        <ele>4.46</ele>
        <time>2018-09-07T14:27:28Z</time>
      </trkpt>
      <trkpt lat="49.32887" lon="-0.38077">
        <ele>3.98</ele>
        <time>2018-09-07T14:27:44Z</time>
      </trkpt>
      <trkpt lat="49.32864" lon="-0.37998">
        <ele>3.98</ele>
        <time>2018-09-07T14:28:02Z</time>
      </trkpt>
      <trkpt lat="49.32849" lon="-0.37968">
        <ele>4.46</ele>
        <time>2018-09-07T14:28:17Z</time>
      </trkpt>
      <trkpt lat="49.32814" lon="-0.37993">
        <ele>5.91</ele>
        <time>2018-09-07T14:28:29Z</time>
      </trkpt>
      <trkpt lat="49.32812" lon="-0.37992">
        <ele>5.91</ele>
        <time>2018-09-07T14:28:46Z</time>
      </trkpt>
      <trkpt lat="49.32772" lon="-0.38016">
        <ele>7.83</ele>
        <time>2018-09-07T14:28:57Z</time>
      </trkpt>
      <trkpt lat="49.32709" lon="-0.38068">
        <ele>8.31</ele>
        <time>2018-09-07T14:29:13Z</time>
      </trkpt>
      <trkpt lat="49.32681" lon="-0.38085">
        <ele>7.83</ele>
        <time>2018-09-07T14:29:28Z</time>
      </trkpt>
      <trkpt lat="49.32668" lon="-0.3808">
        <ele>8.31</ele>
        <time>2018-09-07T14:29:45Z</time>
      </trkpt>
    </trkseg>
  </trk>
</gpx>